Time,TemperatureF,DewpointF,PressureIn,WindDirection,WindDirectionDegrees,WindSpeedMPH,WindSpeedGustMPH,Humidity,HourlyPrecipIn,Conditions,Clouds,dailyrainin,SoftwareType,DateUTC
2013-08-09 00:01:00,80.1,77.6,29.87,SE,146,5.8,5.8,92,0.00,CLR,,0.00,WeatherDisplay:10.37,2013-08-09 05:01:00,
2013-08-09 00:06:00,80.0,77.5,29.88,SSE,155,4.6,4.6,92,0.00,CLR,,0.00,WeatherDisplay:10.37,2013-08-09 05:06:00,
2013-08-09 00:11:00,80.0,77.5,29.88,South,172,4.6,4.6,92,0.00,CLR,,0.00,WeatherDisplay:10.37,2013-08-09 05:11:00,
2013-08-09 00:16:00,79.9,77.4,29.88,SE,145,4.2,4.2,92,0.00,CLR,,0.00,WeatherDisplay:10.37,2013-08-09 05:16:00,
2013-08-09 00:21:00,79.8,77.3,29.88,SSE,153,2.3,2.3,92,0.00,CLR,,0.00,WeatherDisplay:10.37,2013-08-09 05:21:00,
2013-08-09 00:26:00,79.8,77.6,29.88,SSE,153,4.6,4.6,93,0.00,CLR,,0.00,WeatherDisplay:10.37,2013-08-09 05:26:00,
2013-08-09 00:31:00,79.7,77.5,29.88,SE,125,3.5,3.5,93,0.00,CLR,,0.00,WeatherDisplay:10.37,2013-08-09 05:31:00,
2013-08-09 00:36:00,79.6,77.4,29.88,SSE,154,5.8,5.8,93,0.00,CLR,,0.00,WeatherDisplay:10.37,2013-08-09 05:36:00,
2013-08-09 00:41:00,79.5,77.3,29.88,SSE,165,4.6,4.6,93,0.00,CLR,,0.00,WeatherDisplay:10.37,2013-08-09 05:41:00,
2013-08-09 00:46:00,79.5,77.3,29.88,SE,144,4.6,4.6,93,0.00,CLR,,0.00,WeatherDisplay:10.37,2013-08-09 05:46:00,
2013-08-09 00:51:00,79.4,77.2,29.88,SE,134,4.6,4.6,93,0.00,CLR,,0.00,WeatherDisplay:10.37,2013-08-09 05:51:00,
2013-08-09 00:56:00,79.4,77.2,29.88,SE,130,5.8,5.8,93,0.00,CLR,,0.00,WeatherDisplay:10.37,2013-08-09 05:56:00,
2013-08-09 01:01:00,79.4,77.2,29.88,SE,137,4.6,4.6,93,0.00,CLR,,0.00,WeatherDisplay:10.37,2013-08-09 06:01:00,
2013-08-09 01:06:00,79.4,77.2,29.88,ESE,121,5.8,5.8,93,0.00,CLR,,0.00,WeatherDisplay:10.37,2013-08-09 06:06:00,
2013-08-09 01:11:00,79.4,77.2,29.87,SE,141,9.2,9.2,93,0.00,CLR,,0.00,WeatherDisplay:10.37,2013-08-09 06:11:00,
2013-08-09 01:16:00,79.5,77.3,29.87,SE,129,10.4,10.4,93,0.00,CLR,,0.00,WeatherDisplay:10.37,2013-08-09 06:16:00,
2013-08-09 01:21:00,79.5,77.3,29.87,SE,137,4.6,4.6,93,0.00,CLR,,0.00,WeatherDisplay:10.37,2013-08-09 06:21:00,
2013-08-09 01:26:00,79.4,77.2,29.87,SSE,168,4.2,4.2,93,0.00,CLR,,0.00,WeatherDisplay:10.37,2013-08-09 06:26:00,
2013-08-09 01:31:00,79.4,77.2,29.87,SE,132,6.9,6.9,93,0.00,CLR,,0.00,WeatherDisplay:10.37,2013-08-09 06:31:00,
2013-08-09 01:36:00,79.4,77.2,29.87,SE,140,5.8,5.8,93,0.00,CLR,,0.00,WeatherDisplay:10.37,2013-08-09 06:36:00,
2013-08-09 01:41:00,79.4,77.2,29.87,SE,132,5.8,5.8,93,0.00,CLR,,0.00,WeatherDisplay:10.37,2013-08-09 06:41:00,
2013-08-09 01:46:00,79.4,77.2,29.87,SE,124,5.8,5.8,93,0.00,CLR,,0.00,WeatherDisplay:10.37,2013-08-09 06:46:00,
2013-08-09 01:51:00,79.3,77.1,29.87,SSE,167,5.8,5.8,93,0.00,CLR,,0.00,WeatherDisplay:10.37,2013-08-09 06:51:00,
2013-08-09 01:56:00,79.2,77.0,29.87,SSE,165,3.5,3.5,93,0.00,CLR,,0.00,WeatherDisplay:10.37,2013-08-09 06:56:00,
2013-08-09 02:01:00,79.2,77.0,29.87,SSE,149,3.5,3.5,93,0.00,CLR,,0.00,WeatherDisplay:10.37,2013-08-09 07:01:00,
2013-08-09 02:06:00,79.1,77.2,29.87,SSE,150,2.3,2.3,94,0.00,CLR,,0.00,WeatherDisplay:10.37,2013-08-09 07:06:00,
2013-08-09 02:11:00,79.0,77.1,29.87,SE,138,2.3,2.3,94,0.00,CLR,,0.00,WeatherDisplay:10.37,2013-08-09 07:11:00,
2013-08-09 02:16:00,79.0,77.1,29.88,SE,139,2.3,2.3,94,0.00,CLR,,0.00,WeatherDisplay:10.37,2013-08-09 07:16:00,
2013-08-09 02:21:00,78.9,77.0,29.87,SE,139,2.3,2.3,94,0.00,CLR,,0.00,WeatherDisplay:10.37,2013-08-09 07:21:00,
2013-08-09 02:26:00,78.8,76.9,29.87,SE,139,2.3,2.3,94,0.00,CLR,,0.00,WeatherDisplay:10.37,2013-08-09 07:26:00,
2013-08-09 02:31:00,78.8,76.9,29.88,SE,140,2.3,2.3,94,0.00,CLR,,0.00,WeatherDisplay:10.37,2013-08-09 07:31:00,
2013-08-09 02:36:00,78.7,77.1,29.87,SE,141,1.1,1.1,95,0.00,CLR,,0.00,WeatherDisplay:10.37,2013-08-09 07:36:00,
2013-08-09 02:41:00,78.7,77.1,29.87,SSE,148,3.5,3.5,95,0.00,CLR,,0.00,WeatherDisplay:10.37,2013-08-09 07:41:00,
2013-08-09 02:46:00,78.7,77.1,29.87,SSE,147,2.3,2.3,95,0.00,CLR,,0.00,WeatherDisplay:10.37,2013-08-09 07:46:00,
2013-08-09 02:51:00,78.6,77.0,29.87,South,178,4.6,4.6,95,0.00,CLR,,0.00,WeatherDisplay:10.37,2013-08-09 07:51:00,
2013-08-09 02:56:00,78.6,77.0,29.86,SSE,152,4.6,4.6,95,0.00,CLR,,0.00,WeatherDisplay:10.37,2013-08-09 07:56:00,
2013-08-09 03:01:00,78.6,77.0,29.86,SE,142,5.8,5.8,95,0.00,CLR,,0.00,WeatherDisplay:10.37,2013-08-09 08:01:00,
2013-08-09 03:06:00,78.6,77.0,29.86,SE,136,5.8,5.8,95,0.00,CLR,,0.00,WeatherDisplay:10.37,2013-08-09 08:06:00,
2013-08-09 03:11:00,78.6,77.0,29.86,SSE,153,3.5,3.5,95,0.00,CLR,,0.00,WeatherDisplay:10.37,2013-08-09 08:11:00,
2013-08-09 03:16:00,78.6,77.4,29.86,SSE,162,5.8,5.8,96,0.00,CLR,,0.00,WeatherDisplay:10.37,2013-08-09 08:16:00,
2013-08-09 03:21:00,78.6,77.0,29.86,SSE,167,3.5,3.5,95,0.00,CLR,,0.00,WeatherDisplay:10.37,2013-08-09 08:21:00,
2013-08-09 03:26:00,78.5,76.9,29.86,SSE,163,5.3,5.3,95,0.00,CLR,,0.00,WeatherDisplay:10.37,2013-08-09 08:26:00,
2013-08-09 03:31:00,78.4,77.2,29.86,SSW,196,4.6,4.6,96,0.00,CLR,,0.00,WeatherDisplay:10.37,2013-08-09 08:31:00,
2013-08-09 03:36:00,78.4,76.8,29.86,SSE,154,5.8,5.8,95,0.00,CLR,,0.00,WeatherDisplay:10.37,2013-08-09 08:36:00,
2013-08-09 03:42:00,78.4,76.8,29.86,SE,134,4.6,4.6,95,0.00,CLR,,0.00,WeatherDisplay:10.37,2013-08-09 08:42:00,
2013-08-09 03:47:00,78.3,76.7,29.86,SSE,161,2.3,2.3,95,0.00,CLR,,0.00,WeatherDisplay:10.37,2013-08-09 08:47:00,
2013-08-09 03:52:00,78.3,76.7,29.86,SSE,160,3.5,3.5,95,0.00,CLR,,0.00,WeatherDisplay:10.37,2013-08-09 08:52:00,
2013-08-09 03:57:00,78.3,76.7,29.86,SE,138,4.6,4.6,95,0.00,CLR,,0.00,WeatherDisplay:10.37,2013-08-09 08:57:00,
2013-08-09 04:02:00,78.3,76.7,29.86,SSE,160,1.1,2.1,95,0.00,CLR,,0.00,WeatherDisplay:10.37,2013-08-09 09:02:00,
2013-08-09 04:07:00,78.2,76.6,29.86,SSE,167,2.3,2.3,95,0.00,CLR,,0.00,WeatherDisplay:10.37,2013-08-09 09:07:00,
2013-08-09 04:12:00,78.2,76.6,29.86,SSE,167,2.3,2.3,95,0.00,CLR,,0.00,WeatherDisplay:10.37,2013-08-09 09:12:00,
2013-08-09 04:17:00,78.2,76.6,29.86,South,172,2.3,2.3,95,0.00,CLR,,0.00,WeatherDisplay:10.37,2013-08-09 09:17:00,
2013-08-09 04:22:00,78.1,76.6,29.87,South,172,1.1,1.1,95,0.00,CLR,,0.00,WeatherDisplay:10.37,2013-08-09 09:22:00,
2013-08-09 04:27:00,78.1,76.6,29.87,South,172,1.1,0.0,95,0.00,CLR,,0.00,WeatherDisplay:10.37,2013-08-09 09:27:00,
2013-08-09 04:32:00,78.1,76.6,29.87,South,172,1.1,0.0,95,0.00,CLR,,0.00,WeatherDisplay:10.37,2013-08-09 09:32:00,
2013-08-09 04:37:00,78.1,76.6,29.87,South,172,3.5,3.5,95,0.00,CLR,,0.00,WeatherDisplay:10.37,2013-08-09 09:37:00,
2013-08-09 04:42:00,78.2,76.6,29.86,SSE,150,4.6,4.6,95,0.00,CLR,,0.00,WeatherDisplay:10.37,2013-08-09 09:42:00,
2013-08-09 04:47:00,78.3,76.7,29.86,SE,139,5.8,5.8,95,0.00,CLR,,0.00,WeatherDisplay:10.37,2013-08-09 09:47:00,
2013-08-09 04:52:00,78.4,76.8,29.86,SSE,148,3.5,3.5,95,0.00,CLR,,0.00,WeatherDisplay:10.37,2013-08-09 09:52:00,
2013-08-09 04:57:00,78.4,76.8,29.86,South,186,2.3,2.3,95,0.00,CLR,,0.00,WeatherDisplay:10.37,2013-08-09 09:57:00,
2013-08-09 05:02:00,78.4,76.8,29.86,South,191,2.3,2.3,95,0.00,CLR,,0.00,WeatherDisplay:10.37,2013-08-09 10:02:00,
2013-08-09 05:07:00,78.4,76.5,29.86,South,182,2.3,2.3,94,0.00,CLR,,0.00,WeatherDisplay:10.37,2013-08-09 10:07:00,
2013-08-09 05:12:00,78.4,76.5,29.86,South,184,2.3,2.3,94,0.00,CLR,,0.00,WeatherDisplay:10.37,2013-08-09 10:12:00,
2013-08-09 05:17:00,78.4,76.5,29.86,South,173,3.5,3.5,94,0.00,CLR,,0.00,WeatherDisplay:10.37,2013-08-09 10:17:00,
2013-08-09 05:22:00,78.5,76.6,29.86,SSW,203,3.5,3.5,94,0.00,CLR,,0.00,WeatherDisplay:10.37,2013-08-09 10:22:00,
2013-08-09 05:27:00,78.5,76.6,29.86,SSW,202,2.3,2.3,94,0.00,CLR,,0.00,WeatherDisplay:10.37,2013-08-09 10:27:00,
2013-08-09 05:32:00,78.5,76.6,29.86,SSW,201,2.3,2.3,94,0.00,CLR,,0.00,WeatherDisplay:10.37,2013-08-09 10:32:00,
2013-08-09 05:37:00,78.5,76.6,29.86,South,189,3.2,3.2,94,0.00,CLR,,0.00,WeatherDisplay:10.37,2013-08-09 10:37:00,
2013-08-09 05:42:00,78.4,76.5,29.86,SSE,153,4.6,4.6,94,0.00,CLR,,0.00,WeatherDisplay:10.37,2013-08-09 10:42:00,
2013-08-09 05:47:00,78.4,76.5,29.86,South,183,3.5,3.5,94,0.00,CLR,,0.00,WeatherDisplay:10.37,2013-08-09 10:47:00,
2013-08-09 05:52:00,78.3,76.4,29.86,South,179,0.0,0.0,94,0.00,CLR,,0.00,WeatherDisplay:10.37,2013-08-09 10:52:00,
2013-08-09 05:57:00,78.3,76.4,29.86,South,186,3.5,3.5,94,0.00,CLR,,0.00,WeatherDisplay:10.37,2013-08-09 10:57:00,
2013-08-09 06:02:00,78.3,76.4,29.86,South,181,2.3,2.3,94,0.00,CLR,,0.00,WeatherDisplay:10.37,2013-08-09 11:02:00,
2013-08-09 06:07:00,78.2,76.6,29.86,SSW,199,1.1,1.1,95,0.00,CLR,,0.00,WeatherDisplay:10.37,2013-08-09 11:07:00,
2013-08-09 06:12:00,78.2,76.6,29.86,SSE,162,3.5,3.5,95,0.00,CLR,,0.00,WeatherDisplay:10.37,2013-08-09 11:12:00,
2013-08-09 06:17:00,78.2,76.6,29.86,SSE,162,3.5,3.5,95,0.00,CLR,,0.00,WeatherDisplay:10.37,2013-08-09 11:17:00,
2013-08-09 06:22:00,78.2,76.6,29.86,South,179,3.5,3.5,95,0.00,CLR,,0.00,WeatherDisplay:10.37,2013-08-09 11:22:00,
2013-08-09 06:27:00,78.2,76.6,29.86,SSE,165,3.5,3.5,95,0.00,CLR,,0.00,WeatherDisplay:10.37,2013-08-09 11:27:00,
2013-08-09 06:32:00,78.2,76.6,29.86,South,188,5.8,5.8,95,0.00,CLR,,0.00,WeatherDisplay:10.37,2013-08-09 11:32:00,
2013-08-09 06:37:00,78.2,76.6,29.86,SSW,193,3.5,3.5,95,0.00,CLR,,0.00,WeatherDisplay:10.37,2013-08-09 11:37:00,
2013-08-09 06:42:00,78.2,76.6,29.86,South,179,3.5,0.0,95,0.00,CLR,,0.00,WeatherDisplay:10.37,2013-08-09 11:42:00,
2013-08-09 06:47:00,78.1,76.6,29.87,South,186,2.3,2.3,95,0.00,CLR,,0.00,WeatherDisplay:10.37,2013-08-09 11:47:00,
2013-08-09 06:52:00,78.1,76.6,29.87,South,191,2.3,2.3,95,0.00,CLR,,0.00,WeatherDisplay:10.37,2013-08-09 11:52:00,
2013-08-09 06:57:00,78.0,76.5,29.87,South,191,1.1,0.0,95,0.00,CLR,,0.00,WeatherDisplay:10.37,2013-08-09 11:57:00,
2013-08-09 07:02:00,78.0,76.5,29.87,South,185,2.3,2.3,95,0.00,CLR,,0.00,WeatherDisplay:10.37,2013-08-09 12:02:00,
2013-08-09 07:07:00,77.9,76.4,29.87,South,184,1.1,1.1,95,0.00,CLR,,0.00,WeatherDisplay:10.37,2013-08-09 12:07:00,
2013-08-09 07:12:00,77.9,76.4,29.87,South,184,3.5,3.5,95,0.00,CLR,,0.00,WeatherDisplay:10.37,2013-08-09 12:12:00,
2013-08-09 07:17:00,77.9,76.4,29.88,South,184,1.1,1.1,95,0.00,CLR,,0.00,WeatherDisplay:10.37,2013-08-09 12:17:00,
2013-08-09 07:22:00,77.9,76.4,29.88,South,184,0.0,0.0,95,0.00,CLR,,0.00,WeatherDisplay:10.37,2013-08-09 12:22:00,
2013-08-09 07:27:00,77.9,76.4,29.88,South,184,2.3,0.0,95,0.00,CLR,,0.00,WeatherDisplay:10.37,2013-08-09 12:27:00,
2013-08-09 07:32:00,78.0,76.5,29.88,South,184,1.1,1.1,95,0.00,CLR,,0.00,WeatherDisplay:10.37,2013-08-09 12:32:00,
2013-08-09 07:37:00,78.1,76.6,29.88,South,184,2.3,0.0,95,0.00,CLR,,0.00,WeatherDisplay:10.37,2013-08-09 12:37:00,
2013-08-09 07:42:00,78.4,76.8,29.88,SSW,212,3.5,3.5,95,0.00,CLR,,0.00,WeatherDisplay:10.37,2013-08-09 12:42:00,
2013-08-09 07:47:00,78.6,77.0,29.88,SSW,212,3.2,3.2,95,0.00,CLR,,0.00,WeatherDisplay:10.37,2013-08-09 12:47:00,
2013-08-09 07:52:00,79.0,77.1,29.88,SSW,212,1.1,1.1,94,0.00,CLR,,0.00,WeatherDisplay:10.37,2013-08-09 12:52:00,
2013-08-09 07:57:00,79.4,77.5,29.88,SSW,212,0.0,0.0,94,0.00,CLR,,0.00,WeatherDisplay:10.37,2013-08-09 12:57:00,
2013-08-09 08:02:00,79.8,77.6,29.89,SSW,212,3.5,3.5,93,0.00,CLR,,0.00,WeatherDisplay:10.37,2013-08-09 13:02:00,
2013-08-09 08:07:00,80.2,78.0,29.89,South,174,4.6,4.6,93,0.00,CLR,,0.00,WeatherDisplay:10.37,2013-08-09 13:07:00,
2013-08-09 08:12:00,80.6,78.1,29.90,South,174,2.3,2.3,92,0.00,CLR,,0.00,WeatherDisplay:10.37,2013-08-09 13:12:00,
2013-08-09 08:17:00,81.0,78.1,29.90,South,184,3.5,3.5,91,0.00,CLR,,0.00,WeatherDisplay:10.37,2013-08-09 13:17:00,
2013-08-09 08:22:00,81.3,78.1,29.90,South,182,1.1,1.1,90,0.00,CLR,,0.00,WeatherDisplay:10.37,2013-08-09 13:22:00,
2013-08-09 08:27:00,81.7,78.1,29.90,SSW,208,4.6,4.6,89,0.00,CLR,,0.00,WeatherDisplay:10.37,2013-08-09 13:27:00,
2013-08-09 08:32:00,81.8,77.9,29.90,WSW,245,3.5,3.5,88,0.00,CLR,,0.00,WeatherDisplay:10.37,2013-08-09 13:32:00,
2013-08-09 08:37:00,82.0,78.1,29.91,WSW,238,2.3,2.3,88,0.00,CLR,,0.00,WeatherDisplay:10.37,2013-08-09 13:37:00,
2013-08-09 08:42:00,82.4,78.1,29.91,WSW,243,2.3,2.3,87,0.00,CLR,,0.00,WeatherDisplay:10.37,2013-08-09 13:42:00,
2013-08-09 08:47:00,82.4,77.8,29.91,SW,221,4.6,4.6,86,0.00,CLR,,0.00,WeatherDisplay:10.37,2013-08-09 13:47:00,
2013-08-09 08:52:00,82.4,77.8,29.91,SW,229,1.1,1.1,86,0.00,CLR,,0.00,WeatherDisplay:10.37,2013-08-09 13:52:00,
2013-08-09 08:57:00,82.5,77.9,29.90,SW,233,4.6,4.6,86,0.00,CLR,,0.00,WeatherDisplay:10.37,2013-08-09 13:57:00,
2013-08-09 09:02:00,82.7,77.7,29.90,SSW,211,4.6,4.6,85,0.00,CLR,,0.00,WeatherDisplay:10.37,2013-08-09 14:02:00,
2013-08-09 09:07:00,82.8,77.5,29.90,SSW,208,3.5,3.5,84,0.00,CLR,,0.00,WeatherDisplay:10.37,2013-08-09 14:07:00,
2013-08-09 09:12:00,83.0,77.3,29.90,South,188,4.6,4.6,83,0.00,CLR,,0.00,WeatherDisplay:10.37,2013-08-09 14:12:00,
2013-08-09 09:17:00,83.1,77.8,29.91,SW,220,5.8,5.8,84,0.00,CLR,,0.00,WeatherDisplay:10.37,2013-08-09 14:17:00,
2013-08-09 09:22:00,83.2,77.9,29.91,SSW,201,4.6,4.6,84,0.00,CLR,,0.00,WeatherDisplay:10.37,2013-08-09 14:22:00,
2013-08-09 09:27:00,83.2,77.5,29.91,SW,217,2.3,2.3,83,0.00,CLR,,0.00,WeatherDisplay:10.37,2013-08-09 14:27:00,
2013-08-09 09:32:00,83.1,77.0,29.91,South,191,5.8,5.8,82,0.00,CLR,,0.00,WeatherDisplay:10.37,2013-08-09 14:32:00,
2013-08-09 09:37:00,83.4,77.3,29.91,West,269,2.3,2.3,82,0.00,CLR,,0.00,WeatherDisplay:10.37,2013-08-09 14:37:00,
2013-08-09 09:42:00,83.6,77.1,29.91,SSW,210,3.5,3.5,81,0.00,CLR,,0.00,WeatherDisplay:10.37,2013-08-09 14:42:00,
2013-08-09 09:47:00,83.7,77.2,29.91,SW,216,1.1,1.1,81,0.00,CLR,,0.00,WeatherDisplay:10.37,2013-08-09 14:47:00,
2013-08-09 09:52:00,84.2,77.4,29.91,SSW,203,3.5,3.5,80,0.00,CLR,,0.00,WeatherDisplay:10.37,2013-08-09 14:52:00,
2013-08-09 09:57:00,84.1,77.3,29.91,SW,236,4.6,4.6,80,0.00,CLR,,0.00,WeatherDisplay:10.37,2013-08-09 14:57:00,
2013-08-09 10:02:00,84.1,77.3,29.91,SW,216,4.6,4.6,80,0.00,CLR,,0.00,WeatherDisplay:10.37,2013-08-09 15:02:00,
2013-08-09 10:07:00,84.3,77.5,29.90,SW,219,3.5,3.5,80,0.00,CLR,,0.00,WeatherDisplay:10.37,2013-08-09 15:07:00,
2013-08-09 10:12:00,84.5,77.6,29.91,SSW,199,4.6,4.6,80,0.00,CLR,,0.00,WeatherDisplay:10.37,2013-08-09 15:12:00,
2013-08-09 10:17:00,84.6,77.4,29.91,SSW,210,3.5,3.5,79,0.00,CLR,,0.00,WeatherDisplay:10.37,2013-08-09 15:17:00,
2013-08-09 10:22:00,84.6,77.4,29.91,SSW,205,3.5,3.5,79,0.00,CLR,,0.00,WeatherDisplay:10.37,2013-08-09 15:22:00,
2013-08-09 10:27:00,85.1,77.8,29.91,SSW,206,4.6,4.6,79,0.00,CLR,,0.00,WeatherDisplay:10.37,2013-08-09 15:27:00,
2013-08-09 10:32:00,85.8,77.8,29.91,South,181,3.5,3.5,77,0.00,CLR,,0.00,WeatherDisplay:10.37,2013-08-09 15:32:00,
2013-08-09 10:37:00,86.2,77.7,29.91,WSW,258,4.6,4.6,76,0.00,CLR,,0.00,WeatherDisplay:10.37,2013-08-09 15:37:00,
2013-08-09 10:42:00,86.1,77.6,29.91,WSW,245,5.8,5.8,76,0.00,CLR,,0.00,WeatherDisplay:10.37,2013-08-09 15:42:00,
2013-08-09 10:47:00,85.8,77.4,29.91,WSW,256,5.8,5.8,76,0.00,CLR,,0.00,WeatherDisplay:10.37,2013-08-09 15:47:00,
2013-08-09 10:52:00,85.6,77.6,29.91,WSW,238,5.8,5.8,77,0.00,CLR,,0.00,WeatherDisplay:10.37,2013-08-09 15:52:00,
2013-08-09 10:57:00,85.6,77.6,29.91,SSW,209,2.3,2.3,77,0.00,CLR,,0.00,WeatherDisplay:10.37,2013-08-09 15:57:00,
2013-08-09 11:02:00,85.8,77.8,29.91,WSW,248,3.5,3.5,77,0.00,CLR,,0.00,WeatherDisplay:10.37,2013-08-09 16:02:00,
2013-08-09 11:07:00,86.3,77.4,29.91,SSW,212,4.6,4.6,75,0.00,CLR,,0.00,WeatherDisplay:10.37,2013-08-09 16:07:00,
2013-08-09 11:12:00,86.6,78.1,29.91,SSW,203,3.5,3.5,76,0.00,CLR,,0.00,WeatherDisplay:10.37,2013-08-09 16:12:00,
2013-08-09 11:17:00,87.6,78.3,29.91,SSE,156,3.5,3.5,74,0.00,CLR,,0.00,WeatherDisplay:10.37,2013-08-09 16:17:00,
2013-08-09 11:22:00,88.2,78.9,29.91,SSW,201,5.8,5.8,74,0.00,CLR,,0.00,WeatherDisplay:10.37,2013-08-09 16:22:00,
2013-08-09 11:27:00,88.6,78.8,29.91,SSE,161,4.6,4.6,73,0.00,CLR,,0.00,WeatherDisplay:10.37,2013-08-09 16:27:00,
2013-08-09 11:32:00,89.2,78.6,29.91,SSE,157,6.9,6.9,71,0.00,CLR,,0.00,WeatherDisplay:10.37,2013-08-09 16:32:00,
2013-08-09 11:37:00,89.1,78.0,29.91,SE,124,6.9,6.9,70,0.00,CLR,,0.00,WeatherDisplay:10.37,2013-08-09 16:37:00,
2013-08-09 11:42:00,89.2,78.1,29.91,SE,146,5.8,5.8,70,0.00,CLR,,0.00,WeatherDisplay:10.37,2013-08-09 16:42:00,
2013-08-09 11:47:00,89.4,78.3,29.91,SE,132,11.6,11.6,70,0.00,CLR,,0.00,WeatherDisplay:10.37,2013-08-09 16:47:00,
2013-08-09 11:52:00,88.8,77.7,29.91,ESE,105,10.4,10.4,70,0.00,CLR,,0.00,WeatherDisplay:10.37,2013-08-09 16:52:00,
2013-08-09 11:57:00,88.7,78.1,29.91,SE,143,5.8,5.8,71,0.00,CLR,,0.00,WeatherDisplay:10.37,2013-08-09 16:57:00,
2013-08-09 12:02:00,88.6,78.0,29.91,SE,138,12.7,12.7,71,0.00,CLR,,0.00,WeatherDisplay:10.37,2013-08-09 17:02:00,
2013-08-09 12:07:00,88.1,77.9,29.91,SSE,166,4.6,4.6,72,0.00,CLR,,0.00,WeatherDisplay:10.37,2013-08-09 17:07:00,
2013-08-09 12:12:00,88.6,78.0,29.91,SSW,194,5.8,5.8,71,0.00,CLR,,0.00,WeatherDisplay:10.37,2013-08-09 17:12:00,
2013-08-09 12:17:00,89.4,78.3,29.91,East,91,6.9,6.9,70,0.00,CLR,,0.00,WeatherDisplay:10.37,2013-08-09 17:17:00,
2013-08-09 12:22:00,89.8,78.7,29.91,SSW,197,6.9,6.9,70,0.00,CLR,,0.00,WeatherDisplay:10.37,2013-08-09 17:22:00,
2013-08-09 12:27:00,89.9,78.8,29.91,ESE,108,5.8,5.8,70,0.00,CLR,,0.00,WeatherDisplay:10.37,2013-08-09 17:27:00,
2013-08-09 12:32:00,89.8,78.3,29.91,ESE,120,10.4,10.4,69,0.00,CLR,,0.00,WeatherDisplay:10.37,2013-08-09 17:32:00,
2013-08-09 12:37:00,89.3,78.2,29.91,ESE,116,8.1,8.1,70,0.00,CLR,,0.00,WeatherDisplay:10.37,2013-08-09 17:37:00,
2013-08-09 12:42:00,89.3,78.2,29.90,ESE,109,10.4,10.4,70,0.00,CLR,,0.00,WeatherDisplay:10.37,2013-08-09 17:42:00,
2013-08-09 12:47:00,89.8,78.3,29.90,SSE,162,10.4,10.4,69,0.00,CLR,,0.00,WeatherDisplay:10.37,2013-08-09 17:47:00,
2013-08-09 12:52:00,89.8,78.3,29.90,SE,140,10.4,10.4,69,0.00,CLR,,0.00,WeatherDisplay:10.37,2013-08-09 17:52:00,
2013-08-09 12:57:00,89.1,77.6,29.90,SE,134,11.5,11.5,69,0.00,CLR,,0.00,WeatherDisplay:10.37,2013-08-09 17:57:00,
2013-08-09 13:02:00,89.1,78.0,29.90,South,173,11.5,11.5,70,0.00,CLR,,0.00,WeatherDisplay:10.37,2013-08-09 18:02:00,
2013-08-09 13:07:00,89.5,78.4,29.90,SE,139,15.0,15.0,70,0.00,CLR,,0.00,WeatherDisplay:10.37,2013-08-09 18:07:00,
2013-08-09 13:12:00,89.8,78.7,29.90,SE,139,6.9,6.9,70,0.00,CLR,,0.00,WeatherDisplay:10.37,2013-08-09 18:12:00,
2013-08-09 13:17:00,89.6,78.1,29.90,SSW,194,9.2,9.2,69,0.00,CLR,,0.00,WeatherDisplay:10.37,2013-08-09 18:17:00,
2013-08-09 13:22:00,89.5,78.4,29.90,SE,136,6.9,6.9,70,0.00,CLR,,0.00,WeatherDisplay:10.37,2013-08-09 18:22:00,
2013-08-09 13:27:00,89.5,78.0,29.90,SE,141,12.7,12.7,69,0.00,CLR,,0.00,WeatherDisplay:10.37,2013-08-09 18:27:00,
2013-08-09 13:32:00,89.3,77.8,29.90,East,94,11.5,11.5,69,0.00,CLR,,0.00,WeatherDisplay:10.37,2013-08-09 18:32:00,
2013-08-09 13:37:00,89.5,78.4,29.90,SE,129,10.4,10.4,70,0.00,CLR,,0.00,WeatherDisplay:10.37,2013-08-09 18:37:00,
2013-08-09 13:42:00,89.2,77.7,29.90,SE,139,10.4,10.4,69,0.00,CLR,,0.00,WeatherDisplay:10.37,2013-08-09 18:42:00,
2013-08-09 13:47:00,89.2,78.1,29.90,SE,128,8.1,8.1,70,0.00,CLR,,0.00,WeatherDisplay:10.37,2013-08-09 18:47:00,
2013-08-09 13:52:00,88.9,77.8,29.90,ESE,115,8.1,8.1,70,0.00,CLR,,0.00,WeatherDisplay:10.37,2013-08-09 18:52:00,
2013-08-09 13:57:00,89.3,78.7,29.89,SSE,148,15.0,15.0,71,0.00,CLR,,0.00,WeatherDisplay:10.37,2013-08-09 18:57:00,
2013-08-09 14:02:00,90.1,79.0,29.89,South,184,5.8,5.8,70,0.00,CLR,,0.00,WeatherDisplay:10.37,2013-08-09 19:02:00,
2013-08-09 14:07:00,91.1,79.1,29.88,ESE,102,10.5,10.5,68,0.00,CLR,,0.00,WeatherDisplay:10.37,2013-08-09 19:07:00,
2013-08-09 14:12:00,90.7,78.7,29.89,SE,129,10.4,10.4,68,0.00,CLR,,0.00,WeatherDisplay:10.37,2013-08-09 19:12:00,
2013-08-09 14:17:00,90.3,78.3,29.89,ESE,104,12.7,12.7,68,0.00,CLR,,0.00,WeatherDisplay:10.37,2013-08-09 19:17:00,
2013-08-09 14:22:00,89.7,78.6,29.89,ESE,115,15.0,15.0,70,0.00,CLR,,0.00,WeatherDisplay:10.37,2013-08-09 19:22:00,
2013-08-09 14:27:00,89.6,78.9,29.89,East,89,10.4,10.4,71,0.00,CLR,,0.00,WeatherDisplay:10.37,2013-08-09 19:27:00,
2013-08-09 14:32:00,89.7,78.6,29.89,East,90,11.5,11.5,70,0.00,CLR,,0.00,WeatherDisplay:10.37,2013-08-09 19:32:00,
2013-08-09 14:37:00,89.7,78.6,29.89,ENE,77,10.4,10.4,70,0.00,CLR,,0.00,WeatherDisplay:10.37,2013-08-09 19:37:00,
2013-08-09 14:42:00,90.2,78.2,29.89,East,88,11.5,11.5,68,0.00,CLR,,0.00,WeatherDisplay:10.37,2013-08-09 19:42:00,
2013-08-09 14:47:00,90.1,79.0,29.88,NE,52,13.8,13.8,70,0.00,CLR,,0.00,WeatherDisplay:10.37,2013-08-09 19:47:00,
2013-08-09 14:52:00,89.9,78.8,29.88,SE,124,13.8,13.8,70,0.00,CLR,,0.00,WeatherDisplay:10.37,2013-08-09 19:52:00,
2013-08-09 14:57:00,89.6,78.9,29.88,NE,49,10.4,10.4,71,0.00,CLR,,0.00,WeatherDisplay:10.37,2013-08-09 19:57:00,
2013-08-09 15:02:00,89.3,78.7,29.88,SE,127,9.2,9.2,71,0.00,CLR,,0.00,WeatherDisplay:10.37,2013-08-09 20:02:00,
2013-08-09 15:07:00,89.2,79.0,29.88,ESE,117,13.8,13.8,72,0.00,CLR,,0.00,WeatherDisplay:10.37,2013-08-09 20:07:00,
2013-08-09 15:12:00,89.6,78.9,29.87,ESE,103,12.7,12.7,71,0.00,CLR,,0.00,WeatherDisplay:10.37,2013-08-09 20:12:00,
2013-08-09 15:17:00,89.8,79.1,29.88,SE,128,5.8,5.8,71,0.00,CLR,,0.00,WeatherDisplay:10.37,2013-08-09 20:17:00,
2013-08-09 15:22:00,89.7,79.5,29.87,East,84,13.8,13.8,72,0.00,CLR,,0.00,WeatherDisplay:10.37,2013-08-09 20:22:00,
2013-08-09 15:27:00,90.1,79.4,29.87,East,94,10.4,10.4,71,0.00,CLR,,0.00,WeatherDisplay:10.37,2013-08-09 20:27:00,
2013-08-09 15:32:00,89.7,79.0,29.87,ESE,109,9.2,9.2,71,0.00,CLR,,0.00,WeatherDisplay:10.37,2013-08-09 20:32:00,
2013-08-09 15:37:00,89.7,79.0,29.87,SE,125,10.4,10.4,71,0.00,CLR,,0.00,WeatherDisplay:10.37,2013-08-09 20:37:00,
2013-08-09 15:42:00,89.5,79.3,29.87,ESE,108,11.6,11.6,72,0.00,CLR,,0.00,WeatherDisplay:10.37,2013-08-09 20:42:00,
2013-08-09 15:47:00,89.4,79.2,29.87,ENE,57,13.8,13.8,72,0.00,CLR,,0.00,WeatherDisplay:10.37,2013-08-09 20:47:00,
2013-08-09 15:52:00,89.1,79.3,29.86,SE,134,12.7,12.7,73,0.00,CLR,,0.00,WeatherDisplay:10.37,2013-08-09 20:52:00,
2013-08-09 15:57:00,88.8,79.4,29.86,ESE,103,6.9,6.9,74,0.00,CLR,,0.00,WeatherDisplay:10.37,2013-08-09 20:57:00,
2013-08-09 16:02:00,88.7,79.3,29.86,ESE,103,13.7,13.7,74,0.00,CLR,,0.00,WeatherDisplay:10.37,2013-08-09 21:02:00,
2013-08-09 16:07:00,88.3,79.4,29.86,SE,141,10.4,10.4,75,0.00,CLR,,0.00,WeatherDisplay:10.37,2013-08-09 21:07:00,
2013-08-09 16:12:00,88.1,79.2,29.86,East,94,12.7,12.7,75,0.00,CLR,,0.00,WeatherDisplay:10.37,2013-08-09 21:12:00,
2013-08-09 16:17:00,88.3,79.4,29.86,East,85,9.4,9.4,75,0.00,CLR,,0.00,WeatherDisplay:10.37,2013-08-09 21:17:00,
2013-08-09 16:22:00,88.1,79.2,29.86,SE,125,6.9,6.9,75,0.00,CLR,,0.00,WeatherDisplay:10.37,2013-08-09 21:22:00,
2013-08-09 16:27:00,88.3,79.4,29.86,East,96,12.7,12.7,75,0.00,CLR,,0.00,WeatherDisplay:10.37,2013-08-09 21:27:00,
2013-08-09 16:32:00,88.5,79.6,29.86,ENE,73,9.2,9.2,75,0.00,CLR,,0.00,WeatherDisplay:10.37,2013-08-09 21:32:00,
2013-08-09 16:37:00,88.4,79.9,29.86,ENE,57,13.8,13.8,76,0.00,CLR,,0.00,WeatherDisplay:10.37,2013-08-09 21:37:00,
2013-08-09 16:42:00,88.0,79.5,29.86,ESE,105,11.5,11.5,76,0.00,CLR,,0.00,WeatherDisplay:10.37,2013-08-09 21:42:00,
2013-08-09 16:47:00,87.7,79.6,29.86,East,82,9.2,9.2,77,0.00,CLR,,0.00,WeatherDisplay:10.37,2013-08-09 21:47:00,
2013-08-09 16:52:00,87.8,79.7,29.86,East,89,11.5,11.5,77,0.00,CLR,,0.00,WeatherDisplay:10.37,2013-08-09 21:52:00,
2013-08-09 16:57:00,87.6,79.5,29.86,ESE,122,10.4,10.4,77,0.00,CLR,,0.00,WeatherDisplay:10.37,2013-08-09 21:57:00,
2013-08-09 17:02:00,87.5,79.8,29.86,East,101,5.8,5.8,78,0.00,CLR,,0.00,WeatherDisplay:10.37,2013-08-09 22:02:00,
2013-08-09 17:07:00,87.3,79.6,29.86,East,83,11.5,11.5,78,0.00,CLR,,0.00,WeatherDisplay:10.37,2013-08-09 22:07:00,
2013-08-09 17:12:00,87.6,80.3,29.86,ENE,75,6.9,6.9,79,0.00,CLR,,0.00,WeatherDisplay:10.37,2013-08-09 22:12:00,
2013-08-09 17:17:00,87.3,79.6,29.86,SE,128,12.7,12.7,78,0.00,CLR,,0.00,WeatherDisplay:10.37,2013-08-09 22:17:00,
2013-08-09 17:22:00,87.3,80.0,29.85,SE,125,11.5,11.5,79,0.00,CLR,,0.00,WeatherDisplay:10.37,2013-08-09 22:22:00,
2013-08-09 17:27:00,87.2,79.9,29.85,East,101,10.5,10.5,79,0.00,CLR,,0.00,WeatherDisplay:10.37,2013-08-09 22:27:00,
2013-08-09 17:32:00,86.9,80.0,29.85,East,96,11.5,11.5,80,0.00,CLR,,0.00,WeatherDisplay:10.37,2013-08-09 22:32:00,
2013-08-09 17:37:00,86.6,79.7,29.85,ESE,109,9.2,9.2,80,0.00,CLR,,0.00,WeatherDisplay:10.37,2013-08-09 22:37:00,
2013-08-09 17:42:00,86.5,80.0,29.85,SSE,160,10.4,10.4,81,0.00,CLR,,0.00,WeatherDisplay:10.37,2013-08-09 22:42:00,
2013-08-09 17:47:00,86.4,79.5,29.85,ESE,105,10.4,10.4,80,0.00,CLR,,0.00,WeatherDisplay:10.37,2013-08-09 22:47:00,
2013-08-09 17:52:00,86.3,79.8,29.85,ESE,118,10.4,10.4,81,0.00,CLR,,0.00,WeatherDisplay:10.37,2013-08-09 22:52:00,
2013-08-09 17:57:00,86.2,79.7,29.85,ESE,104,12.7,12.7,81,0.00,CLR,,0.00,WeatherDisplay:10.37,2013-08-09 22:57:00,
2013-08-09 18:02:00,86.2,79.7,29.85,ESE,112,9.2,9.2,81,0.00,CLR,,0.00,WeatherDisplay:10.37,2013-08-09 23:02:00,
2013-08-09 18:07:00,86.3,79.8,29.85,ESE,119,9.2,9.2,81,0.00,CLR,,0.00,WeatherDisplay:10.37,2013-08-09 23:07:00,
2013-08-09 18:12:00,86.3,79.4,29.85,ESE,117,9.4,9.4,80,0.00,CLR,,0.00,WeatherDisplay:10.37,2013-08-09 23:12:00,
2013-08-09 18:17:00,86.4,79.9,29.85,ESE,107,11.5,11.5,81,0.00,CLR,,0.00,WeatherDisplay:10.37,2013-08-09 23:17:00,
2013-08-09 18:22:00,86.4,79.5,29.85,East,95,6.9,6.9,80,0.00,CLR,,0.00,WeatherDisplay:10.37,2013-08-09 23:22:00,
2013-08-09 18:27:00,86.3,79.0,29.85,ESE,106,5.8,5.8,79,0.00,CLR,,0.00,WeatherDisplay:10.37,2013-08-09 23:27:00,
2013-08-09 18:32:00,86.4,79.5,29.85,SE,127,6.9,6.9,80,0.00,CLR,,0.00,WeatherDisplay:10.37,2013-08-09 23:32:00,
2013-08-09 18:37:00,86.3,79.0,29.85,East,92,10.4,10.4,79,0.00,CLR,,0.00,WeatherDisplay:10.37,2013-08-09 23:37:00,
2013-08-09 18:42:00,86.1,79.2,29.85,ESE,106,10.4,10.4,80,0.00,CLR,,0.00,WeatherDisplay:10.37,2013-08-09 23:42:00,
2013-08-09 18:47:00,85.9,79.0,29.85,ESE,103,9.2,9.2,80,0.00,CLR,,0.00,WeatherDisplay:10.37,2013-08-09 23:47:00,
2013-08-09 18:52:00,85.6,78.7,29.85,ESE,117,6.9,6.9,80,0.00,CLR,,0.00,WeatherDisplay:10.37,2013-08-09 23:52:00,
2013-08-09 18:57:00,85.6,78.3,29.85,East,85,6.9,6.9,79,0.00,CLR,,0.00,WeatherDisplay:10.37,2013-08-09 23:57:00,
2013-08-09 19:02:00,85.5,78.2,29.84,East,96,8.1,8.1,79,0.00,CLR,,0.00,WeatherDisplay:10.37,2013-08-10 00:02:00,
2013-08-09 19:07:00,85.3,78.0,29.84,ESE,115,13.8,13.8,79,0.00,CLR,,0.00,WeatherDisplay:10.37,2013-08-10 00:07:00,
2013-08-09 19:12:00,85.1,78.2,29.85,East,98,6.9,6.9,80,0.00,CLR,,0.00,WeatherDisplay:10.37,2013-08-10 00:12:00,
2013-08-09 19:17:00,84.9,76.9,29.85,ESE,109,12.7,12.7,77,0.00,CLR,,0.00,WeatherDisplay:10.37,2013-08-10 00:17:00,
2013-08-09 19:22:00,84.7,77.1,29.85,ESE,102,5.8,5.8,78,0.00,CLR,,0.00,WeatherDisplay:10.37,2013-08-10 00:22:00,
2013-08-09 19:27:00,84.7,77.8,29.85,ESE,110,6.9,6.9,80,0.00,CLR,,0.00,WeatherDisplay:10.37,2013-08-10 00:27:00,
2013-08-09 19:32:00,84.5,78.0,29.85,ESE,110,5.8,5.8,81,0.00,CLR,,0.00,WeatherDisplay:10.37,2013-08-10 00:32:00,
2013-08-09 19:37:00,84.2,77.7,29.85,ESE,111,10.4,10.4,81,0.00,CLR,,0.00,WeatherDisplay:10.37,2013-08-10 00:37:00,
2013-08-09 19:42:00,84.1,77.6,29.86,ESE,115,9.2,9.2,81,0.00,CLR,,0.00,WeatherDisplay:10.37,2013-08-10 00:42:00,
2013-08-09 19:47:00,83.7,77.6,29.86,SE,132,12.7,12.7,82,0.00,CLR,,0.00,WeatherDisplay:10.37,2013-08-10 00:47:00,
2013-08-09 19:52:00,83.6,77.9,29.86,SE,136,6.9,6.9,83,0.00,CLR,,0.00,WeatherDisplay:10.37,2013-08-10 00:52:00,
2013-08-09 19:57:00,83.4,77.7,29.86,SSE,153,10.4,10.4,83,0.00,CLR,,0.00,WeatherDisplay:10.37,2013-08-10 00:57:00,
2013-08-09 20:02:00,83.2,77.9,29.86,ESE,113,10.4,10.4,84,0.00,CLR,,0.00,WeatherDisplay:10.37,2013-08-10 01:02:00,
2013-08-09 20:07:00,83.0,78.0,29.86,East,98,11.5,11.5,85,0.00,CLR,,0.00,WeatherDisplay:10.37,2013-08-10 01:07:00,
2013-08-09 20:12:00,82.9,78.3,29.86,SE,135,10.4,10.4,86,0.00,CLR,,0.00,WeatherDisplay:10.37,2013-08-10 01:12:00,
2013-08-09 20:17:00,82.7,78.1,29.86,East,96,12.7,12.7,86,0.00,CLR,,0.00,WeatherDisplay:10.37,2013-08-10 01:17:00,
2013-08-09 20:22:00,82.6,78.3,29.86,ESE,108,6.9,6.9,87,0.00,CLR,,0.00,WeatherDisplay:10.37,2013-08-10 01:22:00,
2013-08-09 20:27:00,82.5,78.6,29.86,SE,144,5.8,5.8,88,0.00,CLR,,0.00,WeatherDisplay:10.37,2013-08-10 01:27:00,
2013-08-09 20:32:00,82.4,78.5,29.86,ESE,118,11.5,11.5,88,0.00,CLR,,0.00,WeatherDisplay:10.37,2013-08-10 01:32:00,
2013-08-09 20:37:00,82.3,78.7,29.87,East,99,5.8,5.8,89,0.00,CLR,,0.00,WeatherDisplay:10.37,2013-08-10 01:37:00,
2013-08-09 20:42:00,82.2,78.6,29.87,East,100,5.8,5.8,89,0.00,CLR,,0.00,WeatherDisplay:10.37,2013-08-10 01:42:00,
2013-08-09 20:47:00,82.2,78.6,29.87,SE,124,6.9,6.9,89,0.00,CLR,,0.00,WeatherDisplay:10.37,2013-08-10 01:47:00,
2013-08-09 20:52:00,82.2,78.6,29.88,ESE,110,5.8,5.8,89,0.00,CLR,,0.00,WeatherDisplay:10.37,2013-08-10 01:52:00,
2013-08-09 20:57:00,82.1,78.5,29.88,SE,130,5.8,5.8,89,0.00,CLR,,0.00,WeatherDisplay:10.37,2013-08-10 01:57:00,
2013-08-09 21:02:00,82.2,78.6,29.88,East,91,6.9,6.9,89,0.00,CLR,,0.00,WeatherDisplay:10.37,2013-08-10 02:02:00,
2013-08-09 21:07:00,82.2,78.6,29.89,ESE,106,9.4,9.4,89,0.00,CLR,,0.00,WeatherDisplay:10.37,2013-08-10 02:07:00,
2013-08-09 21:12:00,82.2,79.0,29.89,SE,132,5.8,5.8,90,0.00,CLR,,0.00,WeatherDisplay:10.37,2013-08-10 02:12:00,
2013-08-09 21:17:00,82.0,78.8,29.89,East,101,11.5,11.5,90,0.00,CLR,,0.00,WeatherDisplay:10.37,2013-08-10 02:17:00,
2013-08-09 21:22:00,82.1,78.9,29.89,SE,131,5.8,5.8,90,0.00,CLR,,0.00,WeatherDisplay:10.37,2013-08-10 02:22:00,
2013-08-09 21:27:00,82.0,79.1,29.90,ESE,113,5.8,5.8,91,0.00,CLR,,0.00,WeatherDisplay:10.37,2013-08-10 02:27:00,
2013-08-09 21:32:00,81.9,79.0,29.90,ESE,116,5.8,5.8,91,0.00,CLR,,0.00,WeatherDisplay:10.37,2013-08-10 02:32:00,
2013-08-09 21:37:00,81.9,79.0,29.90,ESE,119,6.9,6.9,91,0.00,CLR,,0.00,WeatherDisplay:10.37,2013-08-10 02:37:00,
2013-08-09 21:42:00,81.9,79.0,29.90,East,89,5.8,5.8,91,0.00,CLR,,0.00,WeatherDisplay:10.37,2013-08-10 02:42:00,
2013-08-09 21:47:00,81.8,79.2,29.91,ESE,112,6.3,6.3,92,0.00,CLR,,0.00,WeatherDisplay:10.37,2013-08-10 02:47:00,
2013-08-09 21:52:00,81.8,79.2,29.91,East,99,4.6,4.6,92,0.00,CLR,,0.00,WeatherDisplay:10.37,2013-08-10 02:52:00,
2013-08-09 21:57:00,81.8,79.2,29.91,ESE,110,5.8,5.8,92,0.00,CLR,,0.00,WeatherDisplay:10.37,2013-08-10 02:57:00,
2013-08-09 22:02:00,81.7,79.1,29.91,ESE,111,9.2,9.2,92,0.00,CLR,,0.00,WeatherDisplay:10.37,2013-08-10 03:02:00,
2013-08-09 22:07:00,81.7,79.1,29.91,ESE,119,4.6,4.6,92,0.00,CLR,,0.00,WeatherDisplay:10.37,2013-08-10 03:07:00,
2013-08-09 22:12:00,81.8,79.2,29.91,ESE,120,6.9,6.9,92,0.00,CLR,,0.00,WeatherDisplay:10.37,2013-08-10 03:12:00,
2013-08-09 22:17:00,81.8,79.6,29.91,East,84,6.9,6.9,93,0.00,CLR,,0.00,WeatherDisplay:10.37,2013-08-10 03:17:00,
2013-08-09 22:22:00,81.8,79.6,29.91,ESE,107,4.6,4.6,93,0.00,CLR,,0.00,WeatherDisplay:10.37,2013-08-10 03:22:00,
2013-08-09 22:27:00,81.7,79.5,29.92,ENE,77,5.8,5.8,93,0.00,CLR,,0.00,WeatherDisplay:10.37,2013-08-10 03:27:00,
2013-08-09 22:32:00,81.7,79.5,29.92,East,94,4.6,4.6,93,0.00,CLR,,0.00,WeatherDisplay:10.37,2013-08-10 03:32:00,
2013-08-09 22:37:00,81.7,79.5,29.93,ESE,122,5.8,5.8,93,0.00,CLR,,0.00,WeatherDisplay:10.37,2013-08-10 03:37:00,
2013-08-09 22:42:00,81.7,79.5,29.93,ESE,111,6.9,6.9,93,0.00,CLR,,0.00,WeatherDisplay:10.37,2013-08-10 03:42:00,
2013-08-09 22:47:00,81.7,79.5,29.93,ESE,115,5.8,5.8,93,0.00,CLR,,0.00,WeatherDisplay:10.37,2013-08-10 03:47:00,
2013-08-09 22:52:00,81.7,79.5,29.93,ESE,120,8.1,8.1,93,0.00,CLR,,0.00,WeatherDisplay:10.37,2013-08-10 03:52:00,
2013-08-09 22:57:00,81.7,79.5,29.93,East,101,2.3,2.3,93,0.00,CLR,,0.00,WeatherDisplay:10.37,2013-08-10 03:57:00,
2013-08-09 23:01:00,81.7,79.5,29.93,East,96,10.4,10.4,93,0.00,CLR,,0.00,WeatherDisplay:10.37,2013-08-10 04:01:00,
2013-08-09 23:06:00,81.6,79.4,29.93,ESE,119,7.4,7.4,93,0.00,CLR,,0.00,WeatherDisplay:10.37,2013-08-10 04:06:00,
2013-08-09 23:11:00,81.6,79.7,29.94,ESE,117,3.5,3.5,94,0.00,CLR,,0.00,WeatherDisplay:10.37,2013-08-10 04:11:00,
2013-08-09 23:16:00,81.6,79.7,29.94,ESE,113,6.9,6.9,94,0.00,CLR,,0.00,WeatherDisplay:10.37,2013-08-10 04:16:00,
2013-08-09 23:21:00,81.6,79.7,29.93,ESE,107,5.8,5.8,94,0.00,CLR,,0.00,WeatherDisplay:10.37,2013-08-10 04:21:00,
2013-08-09 23:26:00,81.5,79.6,29.94,SE,135,4.6,4.6,94,0.00,CLR,,0.00,WeatherDisplay:10.37,2013-08-10 04:26:00,
2013-08-09 23:31:00,81.5,79.6,29.94,SE,134,3.5,3.5,94,0.00,CLR,,0.00,WeatherDisplay:10.37,2013-08-10 04:31:00,
2013-08-09 23:36:00,81.5,79.6,29.94,ESE,103,1.1,1.4,94,0.00,CLR,,0.00,WeatherDisplay:10.37,2013-08-10 04:36:00,
2013-08-09 23:41:00,81.4,79.5,29.94,ESE,112,3.5,3.5,94,0.00,CLR,,0.00,WeatherDisplay:10.37,2013-08-10 04:41:00,
2013-08-09 23:46:00,81.3,79.4,29.93,SE,136,4.6,4.6,94,0.00,CLR,,0.00,WeatherDisplay:10.37,2013-08-10 04:46:00,
2013-08-09 23:51:00,81.3,79.4,29.93,ESE,110,3.5,3.5,94,0.00,CLR,,0.00,WeatherDisplay:10.37,2013-08-10 04:51:00,
2013-08-09 23:56:00,81.3,79.4,29.93,ESE,110,3.5,3.5,94,0.00,CLR,,0.00,WeatherDisplay:10.37,2013-08-10 04:56:00,